Etusivu
METAR-TAF:

METAR-TAF

Lentoasemat :

Krasnodarin kansainvälinen lentoasema

Krasnodar, Venäjä

Leveyspiiri: 45-02N, Pituuspiiri: 039-09E, korkeus merenpinnasta: 33 m

Tämänhetkinen sää

Tämä raportti tehtiin 27 minuuttia sitten, kello 07.00 UTC
Tuuli 6 kn lännestä/lounaasta, vaihdellen etelän ja lännen/luoteen välillä
Lämpötila 8°C
Kosteus 61%
Ilmanpaine 1017 hPa
Näkyvyys 10 km tai enemmän
Muutamia pilviä 3500 ft:n korkeudessa

METAR: URKK 250700Z 24003MPS 180V290 9999 FEW035 08/01 Q1017 R23L/CLRD70 NOSIG RMK QFE759

Aika: 10:27 (07:27 UTC)

Sääennuste

Tämä raportti tehtiin 2 tuntia ja 32 minuuttia sitten, kello 04.55 UTC
Ennuste voimassa 25. päivästä klo 06 UTC - 26. päivään klo 06 UTC
Tuuli 6 kn lounaasta puuskistuen 16 kn:hen
Näkyvyys 10 km tai enemmän
Hajanaisia pilviä 3000 ft:n korkeudessa

TAF: URKK 250455Z 2506/2606 23003G08MPS 9999 SCT030

Säähavainnot ja -ennusteet yli 4000 lentoasemalta (METAR- ja TAF-raportit).

Käytössä olevat sääasemat on merkitty karttaan keltaisilla ja punaisilla pisteillä.

Aseta hiiri pisteen päälle nähdäksesi sääaseman nimen.

Klikkaa sitten nähdäksesi säähavainnot ja -ennusteet.

Kartan vaihtaminen: klikkaa mustalla rastilla varustettuja vihreitä pisteitä, niin voit zoomata sisään; viivalla varustettua vihreää pistettä, niin voit zoomata ulos tai vihreitä nuolia, niin pääset viereisille kartoille.


METAR-TAF: